Time;durP1;ratioP1;P1;durP2;ratioP2;P2;SDS_P1;SDS_P2;PMS_P1;PMS_P2;Temp;Humidity;BMP_temperature;BMP_pressure;BME280_temperature;BME280_humidity;BME280_pressure;Samples;Min_cycle;Max_cycle;Signal;HPM_P1;HPM_P2
2024/02/24 00:01:41;;;;;;;8.13;4.18;;;;;;;;;;5032822;28;20041;-75
2024/02/24 00:04:13;;;;;;;7.53;3.95;;;;;;;;;;5044176;28;20059;-73
2024/02/24 00:06:49;;;;;;;3.80;3.35;;;;;;;;;;5044395;28;20061;-74
2024/02/24 00:09:24;;;;;;;11.00;3.83;;;;;;;;;;5042058;28;20111;-75
2024/02/24 00:11:54;;;;;;;5.35;3.63;;;;;;;;;;5043621;28;20049;-74
2024/02/24 00:14:25;;;;;;;6.10;3.90;;;;;;;;;;5043327;28;20033;-73
2024/02/24 00:16:57;;;;;;;7.55;3.88;;;;;;;;;;5034359;28;20041;-75
2024/02/24 00:19:32;;;;;;;4.75;3.70;;;;;;;;;;5022746;28;20076;-74
2024/02/24 00:22:04;;;;;;;8.40;4.18;;;;;;;;;;5020754;28;20045;-74
2024/02/24 00:24:38;;;;;;;5.47;3.90;;;;;;;;;;5020346;28;20049;-73
2024/02/24 00:27:14;;;;;;;6.88;4.38;;;;;;;;;;5023195;28;20492;-74
2024/02/24 00:29:49;;;;;;;6.80;3.97;;;;;;;;;;5021613;28;20048;-74
2024/02/24 00:32:20;;;;;;;5.35;4.75;;;;;;;;;;5022750;28;20432;-74
2024/02/24 00:34:54;;;;;;;7.25;4.15;;;;;;;;;;5022478;28;20056;-74
2024/02/24 00:37:29;;;;;;;8.18;4.07;;;;;;;;;;5038071;28;20057;-74
2024/02/24 00:40:09;;;;;;;9.20;3.90;;;;;;;;;;5025644;28;20061;-74
2024/02/24 00:42:40;;;;;;;10.27;3.88;;;;;;;;;;5022059;28;20049;-74
2024/02/24 00:45:10;;;;;;;4.47;3.72;;;;;;;;;;5021245;28;20528;-74
2024/02/24 00:47:42;;;;;;;5.75;3.65;;;;;;;;;;5023472;28;20045;-74
2024/02/24 00:50:14;;;;;;;9.77;3.88;;;;;;;;;;5022427;28;20053;-74
2024/02/24 00:52:45;;;;;;;5.10;3.53;;;;;;;;;;5022700;28;20056;-74
2024/02/24 00:55:17;;;;;;;6.30;3.75;;;;;;;;;;5037202;28;20622;-74
2024/02/24 00:57:51;;;;;;;5.70;3.83;;;;;;;;;;5038376;28;20049;-75
2024/02/24 01:00:24;;;;;;;5.93;3.90;;;;;;;;;;5021950;28;20057;-74
2024/02/24 01:02:56;;;;;;;5.40;3.50;;;;;;;;;;5005336;28;20060;-74
2024/02/24 01:05:28;;;;;;;8.45;4.03;;;;;;;;;;5020915;28;20057;-76
2024/02/24 01:08:00;;;;;;;6.43;3.50;;;;;;;;;;5022752;28;20408;-73
2024/02/24 01:10:35;;;;;;;5.65;3.72;;;;;;;;;;5021568;28;20452;-75
2024/02/24 01:13:06;;;;;;;6.35;4.30;;;;;;;;;;5022402;28;20041;-74
2024/02/24 01:15:39;;;;;;;5.47;4.30;;;;;;;;;;5022686;28;20064;-74
2024/02/24 01:18:22;;;;;;;8.27;4.18;;;;;;;;;;5022726;28;20057;-81
2024/02/24 01:20:56;;;;;;;4.75;3.92;;;;;;;;;;5037646;28;20049;-73
2024/02/24 01:23:30;;;;;;;6.45;3.83;;;;;;;;;;5021038;28;20156;-74
2024/02/24 01:26:02;;;;;;;5.55;3.55;;;;;;;;;;5021762;28;20547;-74
2024/02/24 01:28:36;;;;;;;9.60;4.40;;;;;;;;;;5006627;28;20508;-77
2024/02/24 01:31:12;;;;;;;4.65;3.72;;;;;;;;;;5022780;28;20053;-74
2024/02/24 01:33:45;;;;;;;6.93;4.00;;;;;;;;;;5022518;28;20056;-74
2024/02/24 01:36:17;;;;;;;5.15;3.85;;;;;;;;;;5021975;28;20045;-74
2024/02/24 01:38:49;;;;;;;7.72;4.35;;;;;;;;;;5037047;28;20064;-73
2024/02/24 01:41:22;;;;;;;9.30;4.45;;;;;;;;;;5021936;28;20041;-75
2024/02/24 01:44:01;;;;;;;5.18;4.22;;;;;;;;;;5022109;28;20053;-74
2024/02/24 01:46:31;;;;;;;6.13;4.40;;;;;;;;;;5021796;28;20049;-74
2024/02/24 01:49:04;;;;;;;7.13;4.03;;;;;;;;;;5036912;28;20049;-74
2024/02/24 01:51:36;;;;;;;7.63;4.55;;;;;;;;;;5021632;28;20427;-74
2024/02/24 01:54:09;;;;;;;6.30;4.07;;;;;;;;;;5022288;28;20057;-74
2024/02/24 01:57:00;;;;;;;5.95;4.15;;;;;;;;;;5020816;28;20057;-74
2024/02/24 01:59:34;;;;;;;6.43;3.95;;;;;;;;;;5033203;28;20045;-74
2024/02/24 02:02:05;;;;;;;7.97;4.70;;;;;;;;;;5021022;28;20515;-74
2024/02/24 02:04:37;;;;;;;7.68;4.57;;;;;;;;;;5022584;28;20049;-75
2024/02/24 02:07:11;;;;;;;5.05;3.65;;;;;;;;;;5024015;28;20416;-74
2024/02/24 02:09:59;;;;;;;6.90;3.63;;;;;;;;;;5025165;28;20057;-74
2024/02/24 02:12:31;;;;;;;6.00;4.70;;;;;;;;;;5025404;28;20053;-74
2024/02/24 02:15:03;;;;;;;5.00;4.25;;;;;;;;;;5026117;28;20049;-74
2024/02/24 02:17:34;;;;;;;6.70;4.72;;;;;;;;;;5025271;28;20064;-74
2024/02/24 02:20:19;;;;;;;5.05;3.85;;;;;;;;;;5040528;28;20052;-74
2024/02/24 02:22:52;;;;;;;6.03;4.10;;;;;;;;;;5040695;28;20057;-75
2024/02/24 02:25:23;;;;;;;7.00;4.03;;;;;;;;;;5024389;28;20046;-74
2024/02/24 02:27:54;;;;;;;6.07;3.95;;;;;;;;;;5025753;28;20052;-75
2024/02/24 02:30:27;;;;;;;6.03;4.32;;;;;;;;;;5025331;28;20049;-75
2024/02/24 02:32:58;;;;;;;5.35;4.65;;;;;;;;;;5024111;28;20052;-74
2024/02/24 02:35:30;;;;;;;6.78;4.90;;;;;;;;;;5025405;28;20049;-74
2024/02/24 02:38:01;;;;;;;7.40;4.03;;;;;;;;;;5025542;28;20057;-75
2024/02/24 02:40:35;;;;;;;7.43;4.47;;;;;;;;;;5024754;28;20053;-75
2024/02/24 02:43:11;;;;;;;6.18;4.22;;;;;;;;;;5025963;28;20054;-75
2024/02/24 02:45:42;;;;;;;9.38;4.35;;;;;;;;;;5023719;28;20054;-75
2024/02/24 02:48:12;;;;;;;11.52;4.10;;;;;;;;;;5039911;28;20448;-74
2024/02/24 02:50:49;;;;;;;5.40;4.75;;;;;;;;;;5025005;28;20045;-74
2024/02/24 02:53:21;;;;;;;6.03;4.30;;;;;;;;;;5024074;28;20048;-74
2024/02/24 02:55:53;;;;;;;9.50;4.18;;;;;;;;;;5025499;28;20056;-75
2024/02/24 02:58:23;;;;;;;10.32;4.10;;;;;;;;;;5039488;28;20535;-75
2024/02/24 03:00:56;;;;;;;6.22;4.50;;;;;;;;;;5024008;28;20048;-73
2024/02/24 03:03:29;;;;;;;10.60;4.63;;;;;;;;;;5038921;28;20056;-75
2024/02/24 03:06:01;;;;;;;6.68;4.70;;;;;;;;;;5024798;28;20046;-75
2024/02/24 03:08:34;;;;;;;9.63;4.47;;;;;;;;;;5024452;28;20604;-74
2024/02/24 03:11:07;;;;;;;6.18;4.00;;;;;;;;;;5039118;28;20526;-74
2024/02/24 03:13:38;;;;;;;5.85;4.30;;;;;;;;;;5023297;28;20072;-74
2024/02/24 03:16:09;;;;;;;6.15;4.20;;;;;;;;;;5023897;28;20057;-75
2024/02/24 03:18:42;;;;;;;5.22;4.25;;;;;;;;;;5024231;28;20049;-74
2024/02/24 03:21:24;;;;;;;6.60;4.40;;;;;;;;;;5024985;28;20058;-75
2024/02/24 03:23:56;;;;;;;6.38;4.63;;;;;;;;;;5024762;28;20516;-75
2024/02/24 03:26:27;;;;;;;8.55;4.55;;;;;;;;;;5024728;28;20053;-74
2024/02/24 03:29:00;;;;;;;6.50;4.75;;;;;;;;;;5022460;28;20057;-75
2024/02/24 03:31:32;;;;;;;6.45;4.45;;;;;;;;;;5023856;28;20821;-74
2024/02/24 03:34:03;;;;;;;6.57;4.78;;;;;;;;;;5023718;28;20060;-75
2024/02/24 03:36:33;;;;;;;7.97;4.85;;;;;;;;;;5024700;28;20424;-78
2024/02/24 03:39:04;;;;;;;10.38;4.57;;;;;;;;;;5024541;28;20503;-74
2024/02/24 03:41:35;;;;;;;6.30;4.28;;;;;;;;;;5024307;28;20050;-74
2024/02/24 03:44:07;;;;;;;7.47;4.88;;;;;;;;;;5038511;28;20551;-76
2024/02/24 03:46:37;;;;;;;6.70;4.85;;;;;;;;;;5024072;28;20045;-75
2024/02/24 03:49:08;;;;;;;9.13;4.18;;;;;;;;;;5023720;28;20053;-73
2024/02/24 03:51:40;;;;;;;6.93;4.47;;;;;;;;;;5023660;28;20061;-74
2024/02/24 03:54:11;;;;;;;8.85;4.40;;;;;;;;;;5023627;28;20084;-74
2024/02/24 03:56:42;;;;;;;8.23;4.57;;;;;;;;;;5023470;28;20447;-74
2024/02/24 03:59:12;;;;;;;7.15;3.97;;;;;;;;;;5024083;28;20420;-75
2024/02/24 04:01:44;;;;;;;9.95;4.28;;;;;;;;;;5023255;28;20887;-74
2024/02/24 04:04:16;;;;;;;8.52;4.32;;;;;;;;;;5023755;28;20531;-74
2024/02/24 04:06:47;;;;;;;10.65;5.03;;;;;;;;;;5038474;28;20053;-74
2024/02/24 04:09:17;;;;;;;8.95;4.70;;;;;;;;;;5022825;28;20522;-74
2024/02/24 04:11:50;;;;;;;13.90;5.20;;;;;;;;;;5038799;28;20053;-75
2024/02/24 04:14:22;;;;;;;11.55;4.90;;;;;;;;;;5023666;28;20049;-73
2024/02/24 04:16:52;;;;;;;9.32;4.25;;;;;;;;;;5023994;28;20046;-74
2024/02/24 04:19:22;;;;;;;8.88;4.68;;;;;;;;;;5023655;28;20050;-74
2024/02/24 04:21:53;;;;;;;9.63;4.57;;;;;;;;;;5023257;28;20057;-74
2024/02/24 04:24:24;;;;;;;10.55;5.13;;;;;;;;;;5022897;28;20049;-74
2024/02/24 04:26:55;;;;;;;11.98;4.70;;;;;;;;;;5022780;28;20522;-74
2024/02/24 04:29:25;;;;;;;8.48;5.53;;;;;;;;;;5023266;28;20057;-74
2024/02/24 04:31:55;;;;;;;9.65;4.85;;;;;;;;;;5023686;28;20049;-75
2024/02/24 04:34:26;;;;;;;6.00;4.85;;;;;;;;;;5022616;28;20068;-76
2024/02/24 04:36:57;;;;;;;7.45;4.82;;;;;;;;;;5022987;28;20049;-74
2024/02/24 04:39:28;;;;;;;14.38;4.32;;;;;;;;;;5023483;28;20060;-73
2024/02/24 04:41:58;;;;;;;6.25;4.43;;;;;;;;;;5023173;28;20041;-75
2024/02/24 04:44:28;;;;;;;6.47;4.72;;;;;;;;;;5023046;28;20512;-75
2024/02/24 04:47:22;;;;;;;9.70;4.32;;;;;;;;;;5022280;28;20049;-74
2024/02/24 04:50:00;;;;;;;8.02;4.53;;;;;;;;;;5037407;28;20493;-76
2024/02/24 04:52:38;;;;;;;14.40;4.97;;;;;;;;;;5022418;28;20065;-73
2024/02/24 04:55:09;;;;;;;10.55;4.53;;;;;;;;;;5022339;28;20049;-74
2024/02/24 04:57:39;;;;;;;9.15;4.93;;;;;;;;;;5022637;28;20057;-74
2024/02/24 05:00:11;;;;;;;11.88;4.50;;;;;;;;;;5022268;28;20045;-74
2024/02/24 05:02:42;;;;;;;9.20;4.70;;;;;;;;;;5023145;28;20060;-74
2024/02/24 05:05:12;;;;;;;7.80;4.55;;;;;;;;;;5022681;28;20049;-74
2024/02/24 05:07:42;;;;;;;8.00;4.85;;;;;;;;;;5022411;28;20076;-74
2024/02/24 05:10:14;;;;;;;7.05;4.88;;;;;;;;;;5022493;28;20053;-73
2024/02/24 05:12:47;;;;;;;7.82;4.80;;;;;;;;;;5022351;28;20527;-74
2024/02/24 05:15:19;;;;;;;7.03;4.30;;;;;;;;;;5022685;28;20068;-74
2024/02/24 05:17:49;;;;;;;5.93;4.32;;;;;;;;;;5022319;28;20064;-73
2024/02/24 05:20:21;;;;;;;6.25;4.90;;;;;;;;;;5022863;28;20050;-74
2024/02/24 05:22:52;;;;;;;6.75;4.65;;;;;;;;;;5021945;28;20050;-75
2024/02/24 05:25:22;;;;;;;5.63;4.78;;;;;;;;;;5022089;28;20049;-74
2024/02/24 05:27:53;;;;;;;6.30;4.78;;;;;;;;;;5022115;28;20049;-74
2024/02/24 05:30:23;;;;;;;8.02;4.60;;;;;;;;;;5022296;28;20504;-74
2024/02/24 05:32:54;;;;;;;6.65;4.38;;;;;;;;;;5022182;28;20052;-75
2024/02/24 05:35:29;;;;;;;7.03;5.15;;;;;;;;;;5022469;28;20049;-74
2024/02/24 05:37:59;;;;;;;6.07;4.78;;;;;;;;;;5022120;28;20049;-75
2024/02/24 05:40:29;;;;;;;7.32;4.95;;;;;;;;;;5021841;28;20500;-74
2024/02/24 05:42:59;;;;;;;11.13;5.28;;;;;;;;;;5024737;28;20053;-74
2024/02/24 05:45:31;;;;;;;7.20;4.57;;;;;;;;;;5027134;28;20045;-75
2024/02/24 05:48:03;;;;;;;12.88;5.05;;;;;;;;;;5026251;28;20519;-74
2024/02/24 05:50:33;;;;;;;5.50;4.53;;;;;;;;;;5026113;28;20444;-75
2024/02/24 05:53:03;;;;;;;5.72;4.40;;;;;;;;;;5026069;28;20504;-77
2024/02/24 05:55:37;;;;;;;6.25;4.35;;;;;;;;;;5026369;28;20052;-74
2024/02/24 05:58:08;;;;;;;11.27;4.85;;;;;;;;;;5026049;28;20056;-74
2024/02/24 06:00:40;;;;;;;8.35;4.45;;;;;;;;;;5025497;28;20515;-73
2024/02/24 06:03:12;;;;;;;7.65;4.88;;;;;;;;;;5025936;28;20057;-73
2024/02/24 06:05:42;;;;;;;9.63;4.55;;;;;;;;;;5025389;28;20049;-75
2024/02/24 06:08:14;;;;;;;8.35;4.82;;;;;;;;;;5025614;28;20053;-74
2024/02/24 06:10:47;;;;;;;9.40;4.45;;;;;;;;;;5025340;28;20049;-75
2024/02/24 06:13:18;;;;;;;9.10;4.93;;;;;;;;;;5025375;28;20053;-73
2024/02/24 06:18:41;;;;;;;7.93;5.10;;;;;;;;;;5025284;28;20519;-74
2024/02/24 06:21:12;;;;;;;7.78;4.63;;;;;;;;;;5025597;28;20053;-74
2024/02/24 06:23:43;;;;;;;7.28;4.65;;;;;;;;;;5025697;28;20053;-74
2024/02/24 06:26:15;;;;;;;7.10;4.47;;;;;;;;;;5026502;28;20496;-74
2024/02/24 06:28:46;;;;;;;6.25;4.85;;;;;;;;;;5024975;28;20507;-73
2024/02/24 06:31:18;;;;;;;7.50;4.60;;;;;;;;;;5025683;28;20049;-75
2024/02/24 06:33:49;;;;;;;11.65;4.80;;;;;;;;;;5025568;28;20053;-73
2024/02/24 06:36:19;;;;;;;6.25;4.78;;;;;;;;;;5025116;28;20052;-74
2024/02/24 06:38:58;;;;;;;6.15;5.07;;;;;;;;;;5025029;28;20052;-73
2024/02/24 06:41:33;;;;;;;8.77;5.18;;;;;;;;;;5025887;28;20053;-73
2024/02/24 06:44:04;;;;;;;6.40;5.10;;;;;;;;;;5025438;28;20041;-74
2024/02/24 06:46:34;;;;;;;8.73;5.20;;;;;;;;;;5023187;28;20061;-73
2024/02/24 06:49:05;;;;;;;8.00;4.95;;;;;;;;;;5025012;28;20046;-74
2024/02/24 06:51:36;;;;;;;6.45;4.43;;;;;;;;;;5039698;28;20068;-73
2024/02/24 06:54:07;;;;;;;8.45;5.03;;;;;;;;;;5024374;28;20529;-72
2024/02/24 06:56:37;;;;;;;17.48;6.10;;;;;;;;;;5025039;28;20436;-74
2024/02/24 06:59:09;;;;;;;8.80;5.22;;;;;;;;;;5025701;28;20602;-74
2024/02/24 07:01:41;;;;;;;6.93;5.13;;;;;;;;;;5024347;28;20053;-74
2024/02/24 07:04:12;;;;;;;6.22;4.30;;;;;;;;;;5024371;28;21110;-74
2024/02/24 07:06:42;;;;;;;8.13;5.63;;;;;;;;;;5039988;28;20611;-74
2024/02/24 07:09:15;;;;;;;9.10;5.47;;;;;;;;;;5024474;28;20895;-74
2024/02/24 07:11:46;;;;;;;9.02;5.65;;;;;;;;;;5039281;28;20050;-73
2024/02/24 07:14:18;;;;;;;10.50;5.35;;;;;;;;;;5025064;28;20037;-73
2024/02/24 07:16:48;;;;;;;9.13;5.07;;;;;;;;;;5025082;28;20053;-73
2024/02/24 07:19:19;;;;;;;7.13;5.28;;;;;;;;;;5024585;28;20045;-75
2024/02/24 07:21:50;;;;;;;8.43;5.18;;;;;;;;;;5024274;28;20068;-74
2024/02/24 07:24:20;;;;;;;9.80;5.05;;;;;;;;;;5038898;28;20080;-73
2024/02/24 07:26:50;;;;;;;7.53;4.97;;;;;;;;;;5023879;28;20045;-73
2024/02/24 07:29:20;;;;;;;8.43;4.35;;;;;;;;;;5024374;28;20706;-72
2024/02/24 07:31:54;;;;;;;8.57;5.50;;;;;;;;;;5023932;28;20049;-74
2024/02/24 07:34:25;;;;;;;7.82;4.78;;;;;;;;;;5023991;28;20049;-74
2024/02/24 07:36:56;;;;;;;7.93;5.10;;;;;;;;;;5023778;28;20518;-74
2024/02/24 07:39:26;;;;;;;7.47;4.72;;;;;;;;;;5023688;28;20053;-74
2024/02/24 07:41:59;;;;;;;11.52;4.72;;;;;;;;;;5023780;28;20046;-74
2024/02/24 07:44:29;;;;;;;7.65;4.30;;;;;;;;;;5023585;28;20049;-74
2024/02/24 07:47:00;;;;;;;7.93;5.20;;;;;;;;;;5023793;28;20044;-73
2024/02/24 07:49:31;;;;;;;10.82;5.18;;;;;;;;;;5023688;28;20057;-72
2024/02/24 07:52:04;;;;;;;8.15;5.20;;;;;;;;;;5023757;28;20527;-73
2024/02/24 07:54:35;;;;;;;10.82;4.65;;;;;;;;;;5023884;28;20045;-73
2024/02/24 07:57:06;;;;;;;8.60;4.68;;;;;;;;;;5023402;28;20037;-73
2024/02/24 07:59:35;;;;;;;15.82;5.65;;;;;;;;;;5023539;28;20042;-74
2024/02/24 08:02:06;;;;;;;9.82;5.07;;;;;;;;;;5038824;28;20060;-74
2024/02/24 08:04:37;;;;;;;9.73;4.50;;;;;;;;;;5023406;28;20049;-74
2024/02/24 08:07:09;;;;;;;9.15;4.72;;;;;;;;;;5023938;28;20060;-73
2024/02/24 08:09:39;;;;;;;10.52;5.32;;;;;;;;;;5023917;28;20065;-73
2024/02/24 08:12:09;;;;;;;15.65;4.80;;;;;;;;;;5023278;28;20053;-74
2024/02/24 08:14:40;;;;;;;10.20;4.70;;;;;;;;;;5023037;28;20053;-74
2024/02/24 08:17:13;;;;;;;7.25;4.63;;;;;;;;;;5023127;28;20056;-74
2024/02/24 08:19:43;;;;;;;8.45;4.90;;;;;;;;;;5023364;28;20041;-73
2024/02/24 08:22:18;;;;;;;8.60;5.05;;;;;;;;;;5023099;28;20056;-72
2024/02/24 08:24:51;;;;;;;13.27;5.35;;;;;;;;;;5023233;28;20045;-73
2024/02/24 08:27:26;;;;;;;8.07;4.82;;;;;;;;;;5021462;28;20058;-73
2024/02/24 08:29:57;;;;;;;9.75;4.65;;;;;;;;;;5022392;28;20045;-73
2024/02/24 08:32:27;;;;;;;9.60;4.68;;;;;;;;;;5022869;28;20045;-73
2024/02/24 08:34:57;;;;;;;9.20;4.70;;;;;;;;;;5023274;28;20041;-73
2024/02/24 08:37:28;;;;;;;12.65;4.50;;;;;;;;;;5023507;28;20041;-73
2024/02/24 08:39:59;;;;;;;7.97;5.13;;;;;;;;;;5022809;28;20523;-74
2024/02/24 08:42:29;;;;;;;8.02;4.70;;;;;;;;;;5038004;28;20048;-72
2024/02/24 08:45:00;;;;;;;9.27;5.10;;;;;;;;;;5023499;28;20045;-73
2024/02/24 08:47:31;;;;;;;7.72;4.75;;;;;;;;;;5022745;28;20509;-75
2024/02/24 08:50:03;;;;;;;8.77;4.55;;;;;;;;;;5023163;28;20060;-73
2024/02/24 08:52:34;;;;;;;13.20;4.97;;;;;;;;;;5022276;28;20050;-73
2024/02/24 08:55:18;;;;;;;10.25;4.60;;;;;;;;;;5022339;28;20060;-74
2024/02/24 08:57:48;;;;;;;9.30;4.80;;;;;;;;;;5022465;28;20052;-74
2024/02/24 09:00:20;;;;;;;9.70;5.45;;;;;;;;;;5022334;28;20049;-73
2024/02/24 09:02:51;;;;;;;7.22;5.47;;;;;;;;;;5054327;28;20431;-74
2024/02/24 09:05:22;;;;;;;11.00;5.25;;;;;;;;;;5023337;28;20046;-74
2024/02/24 09:07:52;;;;;;;13.93;6.18;;;;;;;;;;5022359;28;20056;-74
2024/02/24 09:10:23;;;;;;;7.47;5.63;;;;;;;;;;5022477;28;20104;-74
2024/02/24 09:12:55;;;;;;;10.93;5.60;;;;;;;;;;5022243;28;20056;-74
2024/02/24 09:15:30;;;;;;;9.02;5.80;;;;;;;;;;5023522;28;20088;-74
2024/02/24 09:18:01;;;;;;;16.08;6.85;;;;;;;;;;5021831;28;20041;-75
2024/02/24 09:20:35;;;;;;;9.82;5.47;;;;;;;;;;5022045;28;20045;-73
2024/02/24 09:23:11;;;;;;;13.07;6.07;;;;;;;;;;5021627;28;20053;-73
2024/02/24 09:25:45;;;;;;;11.55;6.72;;;;;;;;;;5022379;28;20079;-74
2024/02/24 09:28:17;;;;;;;12.02;6.78;;;;;;;;;;5022757;28;20064;-74
2024/02/24 09:30:48;;;;;;;9.70;6.90;;;;;;;;;;5023560;28;20049;-73
2024/02/24 09:33:18;;;;;;;10.85;6.25;;;;;;;;;;5021996;28;20049;-74
2024/02/24 09:35:49;;;;;;;10.82;7.35;;;;;;;;;;5022496;28;20057;-73
2024/02/24 09:38:21;;;;;;;9.13;5.70;;;;;;;;;;5037004;28;20416;-73
2024/02/24 09:40:51;;;;;;;11.63;8.35;;;;;;;;;;5022081;28;20045;-74
2024/02/24 09:43:21;;;;;;;14.07;8.95;;;;;;;;;;5021792;28;20424;-72
2024/02/24 09:45:53;;;;;;;12.95;8.00;;;;;;;;;;5022070;28;20396;-74
2024/02/24 09:51:34;;;;;;;16.27;10.52;;;;;;;;;;5021913;28;20050;-74
2024/02/24 09:54:07;;;;;;;17.58;11.40;;;;;;;;;;5031324;28;20060;-73
2024/02/24 09:56:38;;;;;;;18.70;11.75;;;;;;;;;;5042058;28;20055;-75
2024/02/24 09:59:10;;;;;;;15.35;9.95;;;;;;;;;;5040426;28;20518;-73
2024/02/24 10:01:46;;;;;;;11.75;9.38;;;;;;;;;;5042116;28;20056;-74
2024/02/24 10:04:18;;;;;;;14.68;9.95;;;;;;;;;;5042627;28;20060;-73
2024/02/24 10:06:49;;;;;;;14.40;9.75;;;;;;;;;;5041930;28;20395;-77
2024/02/24 10:09:20;;;;;;;15.45;10.90;;;;;;;;;;5039864;28;20068;-74
2024/02/24 10:11:52;;;;;;;16.38;10.63;;;;;;;;;;5041780;28;20431;-72
2024/02/24 10:14:23;;;;;;;16.83;9.90;;;;;;;;;;5042184;28;20537;-74
2024/02/24 10:16:57;;;;;;;13.70;9.65;;;;;;;;;;5040819;28;20049;-74
2024/02/24 10:19:33;;;;;;;13.82;9.50;;;;;;;;;;5041759;28;20049;-74
2024/02/24 10:22:06;;;;;;;15.38;10.02;;;;;;;;;;5041482;28;20064;-73
2024/02/24 10:24:37;;;;;;;18.83;9.43;;;;;;;;;;5042104;28;21115;-74
2024/02/24 10:27:36;;;;;;;16.33;9.77;;;;;;;;;;5041411;28;20496;-74
2024/02/24 10:33:18;;;;;;;16.23;9.80;;;;;;;;;;5044037;28;20045;-70
2024/02/24 10:35:54;;;;;;;13.43;8.65;;;;;;;;;;5043413;28;20061;-74
2024/02/24 10:38:27;;;;;;;12.98;7.88;;;;;;;;;;5040902;28;20045;-74
2024/02/24 10:41:11;;;;;;;8.88;7.25;;;;;;;;;;5024048;28;20407;-73
2024/02/24 10:43:42;;;;;;;11.65;6.80;;;;;;;;;;5023109;28;20045;-74
2024/02/24 10:46:12;;;;;;;12.95;7.00;;;;;;;;;;5022787;28;20519;-78
2024/02/24 10:48:42;;;;;;;10.75;7.05;;;;;;;;;;5023891;28;20052;-74
2024/02/24 10:51:17;;;;;;;8.40;6.32;;;;;;;;;;5023450;28;20064;-72
2024/02/24 10:54:15;;;;;;;9.20;5.30;;;;;;;;;;5022643;28;20053;-74
2024/02/24 10:56:57;;;;;;;8.45;5.75;;;;;;;;;;5025445;28;20057;-75
2024/02/24 10:59:31;;;;;;;6.93;5.53;;;;;;;;;;5023453;28;20064;-73
2024/02/24 11:02:03;;;;;;;10.93;5.50;;;;;;;;;;5008211;28;20056;-74
2024/02/24 11:04:37;;;;;;;12.60;5.15;;;;;;;;;;5041677;28;20421;-75
2024/02/24 11:07:18;;;;;;;9.02;5.20;;;;;;;;;;5026116;28;20056;-75
2024/02/24 11:09:52;;;;;;;12.93;5.05;;;;;;;;;;5025266;28;20065;-73
2024/02/24 11:12:22;;;;;;;4.95;4.20;;;;;;;;;;5026149;28;20050;-74
2024/02/24 11:14:55;;;;;;;9.27;4.50;;;;;;;;;;5024867;28;20049;-76
2024/02/24 11:17:46;;;;;;;8.10;5.20;;;;;;;;;;5024833;28;20798;-74
2024/02/24 11:20:37;;;;;;;7.75;4.60;;;;;;;;;;5024554;28;20046;-74
2024/02/24 11:23:21;;;;;;;8.00;4.88;;;;;;;;;;5039974;28;20080;-74
2024/02/24 11:26:19;;;;;;;10.90;5.10;;;;;;;;;;5026010;28;20060;-73
2024/02/24 11:29:02;;;;;;;9.07;5.03;;;;;;;;;;5024366;28;20413;-72
2024/02/24 11:31:36;;;;;;;8.18;4.85;;;;;;;;;;5024029;28;20496;-78
2024/02/24 11:34:09;;;;;;;8.90;4.50;;;;;;;;;;5024085;28;20049;-74
2024/02/24 11:36:41;;;;;;;6.88;5.03;;;;;;;;;;5024595;28;20060;-75
2024/02/24 11:39:13;;;;;;;5.68;3.95;;;;;;;;;;5039474;28;21338;-83
2024/02/24 11:41:45;;;;;;;9.68;4.75;;;;;;;;;;5024440;28;20515;-76
2024/02/24 11:44:17;;;;;;;6.68;4.80;;;;;;;;;;5023010;28;20053;-73
2024/02/24 11:46:48;;;;;;;8.30;4.45;;;;;;;;;;5023754;28;20654;-76
2024/02/24 11:49:19;;;;;;;14.40;5.47;;;;;;;;;;5023454;28;20518;-74
2024/02/24 11:51:52;;;;;;;12.35;4.63;;;;;;;;;;5022326;28;20049;-80
2024/02/24 11:54:23;;;;;;;6.75;4.70;;;;;;;;;;5024764;28;20740;-75
2024/02/24 11:56:54;;;;;;;9.55;4.13;;;;;;;;;;5024459;28;20557;-75
2024/02/24 11:59:28;;;;;;;9.68;4.55;;;;;;;;;;5023556;28;20065;-77
2024/02/24 12:02:00;;;;;;;11.85;4.88;;;;;;;;;;5021927;28;20054;-75
2024/02/24 12:04:31;;;;;;;6.22;4.25;;;;;;;;;;5023721;28;20052;-74
2024/02/24 12:07:01;;;;;;;7.05;4.70;;;;;;;;;;5024615;28;20084;-75
2024/02/24 12:09:46;;;;;;;4.20;3.53;;;;;;;;;;5024185;28;20072;-73
2024/02/24 12:12:21;;;;;;;5.90;3.65;;;;;;;;;;5023023;28;20046;-73
2024/02/24 12:14:53;;;;;;;8.73;3.78;;;;;;;;;;5025545;28;20645;-76
2024/02/24 12:17:25;;;;;;;5.30;4.07;;;;;;;;;;5023874;28;20053;-73
2024/02/24 12:19:57;;;;;;;6.28;4.00;;;;;;;;;;5022850;28;20049;-75
2024/02/24 12:22:28;;;;;;;9.15;3.67;;;;;;;;;;5023385;28;20416;-73
2024/02/24 12:25:13;;;;;;;11.52;4.03;;;;;;;;;;5022655;28;20065;-74
2024/02/24 12:27:43;;;;;;;5.03;3.00;;;;;;;;;;5021732;28;21015;-76
2024/02/24 12:30:14;;;;;;;4.00;2.90;;;;;;;;;;5022983;28;20495;-74
2024/02/24 12:32:46;;;;;;;4.30;3.25;;;;;;;;;;5023117;28;20499;-75
2024/02/24 12:35:16;;;;;;;5.80;3.22;;;;;;;;;;5023138;28;20069;-79
2024/02/24 12:37:46;;;;;;;4.53;3.47;;;;;;;;;;5023481;28;20060;-76
2024/02/24 12:40:30;;;;;;;4.65;3.22;;;;;;;;;;5023038;28;20042;-75
2024/02/24 12:43:05;;;;;;;4.28;3.40;;;;;;;;;;5024615;28;20041;-75
2024/02/24 12:45:38;;;;;;;3.95;3.47;;;;;;;;;;5022921;28;20067;-74
2024/02/24 12:48:09;;;;;;;6.50;3.80;;;;;;;;;;5022401;28;20440;-75
2024/02/24 12:50:42;;;;;;;5.57;4.47;;;;;;;;;;5022946;28;20057;-78
2024/02/24 12:53:14;;;;;;;4.63;3.40;;;;;;;;;;5054859;28;20050;-74
2024/02/24 12:55:44;;;;;;;6.72;3.85;;;;;;;;;;5022643;28;20048;-75
2024/02/24 12:58:15;;;;;;;6.55;4.00;;;;;;;;;;5022981;28;20500;-75
2024/02/24 13:00:47;;;;;;;5.38;4.32;;;;;;;;;;5022754;28;20045;-74
2024/02/24 13:03:19;;;;;;;4.10;3.70;;;;;;;;;;5022643;28;20049;-74
2024/02/24 13:05:49;;;;;;;4.30;3.40;;;;;;;;;;5022850;28;20415;-75
2024/02/24 13:08:20;;;;;;;4.97;4.00;;;;;;;;;;5022627;28;20072;-74
2024/02/24 13:10:54;;;;;;;3.80;3.45;;;;;;;;;;5021828;28;20045;-75
2024/02/24 13:13:26;;;;;;;6.88;3.83;;;;;;;;;;5022522;28;20060;-74
2024/02/24 13:15:57;;;;;;;7.97;4.65;;;;;;;;;;5022698;28;20076;-74
2024/02/24 13:18:28;;;;;;;6.97;4.40;;;;;;;;;;5022175;28;20538;-76
2024/02/24 13:20:59;;;;;;;4.70;3.67;;;;;;;;;;5022728;28;20068;-75
2024/02/24 13:23:31;;;;;;;7.10;4.22;;;;;;;;;;5022523;28;20053;-74
2024/02/24 13:26:01;;;;;;;5.75;4.55;;;;;;;;;;5022861;28;20053;-75
2024/02/24 13:28:31;;;;;;;4.90;4.35;;;;;;;;;;5022476;28;20057;-74
2024/02/24 13:31:04;;;;;;;4.90;4.10;;;;;;;;;;5022633;28;20056;-77
2024/02/24 13:33:35;;;;;;;11.40;4.63;;;;;;;;;;5022798;28;20526;-74
2024/02/24 13:36:07;;;;;;;5.18;4.63;;;;;;;;;;5022095;28;20044;-75
2024/02/24 13:38:38;;;;;;;7.05;4.53;;;;;;;;;;5022191;28;20049;-74
2024/02/24 13:41:10;;;;;;;9.10;4.95;;;;;;;;;;5023246;28;20146;-75
2024/02/24 13:43:42;;;;;;;6.00;4.60;;;;;;;;;;5022606;28;20053;-76
2024/02/24 13:46:12;;;;;;;8.70;5.15;;;;;;;;;;5023328;28;20042;-75
2024/02/24 13:48:42;;;;;;;6.53;4.55;;;;;;;;;;5023003;28;20056;-76
2024/02/24 13:51:14;;;;;;;5.40;4.65;;;;;;;;;;5022059;28;20049;-78
2024/02/24 13:57:02;;;;;;;5.30;4.57;;;;;;;;;;5024303;28;20553;-74
2024/02/24 13:59:50;;;;;;;5.30;4.32;;;;;;;;;;5021833;28;20815;-75
2024/02/24 14:02:20;;;;;;;9.85;4.72;;;;;;;;;;5037565;28;20049;-78
2024/02/24 14:04:52;;;;;;;6.68;4.50;;;;;;;;;;5026087;28;20033;-74
2024/02/24 14:07:23;;;;;;;5.85;4.32;;;;;;;;;;5057735;28;20057;-75
2024/02/24 14:09:54;;;;;;;5.22;4.07;;;;;;;;;;5026259;28;20072;-74
2024/02/24 14:12:24;;;;;;;3.92;3.60;;;;;;;;;;5024673;28;20052;-74
2024/02/24 14:14:55;;;;;;;7.88;3.50;;;;;;;;;;5024938;28;20049;-74
2024/02/24 14:17:27;;;;;;;3.80;3.40;;;;;;;;;;5025319;28;20407;-75
2024/02/24 14:19:58;;;;;;;6.30;3.40;;;;;;;;;;5025967;28;20841;-76
2024/02/24 14:22:43;;;;;;;4.85;3.65;;;;;;;;;;5025048;28;20056;-75
2024/02/24 14:25:14;;;;;;;6.93;3.55;;;;;;;;;;5025487;28;20061;-75
2024/02/24 14:27:46;;;;;;;6.07;3.70;;;;;;;;;;5026064;28;20526;-74
2024/02/24 14:30:19;;;;;;;4.15;3.45;;;;;;;;;;5025465;28;20057;-73
2024/02/24 14:32:49;;;;;;;3.92;3.38;;;;;;;;;;5024068;28;20045;-73
2024/02/24 14:35:44;;;;;;;5.53;3.30;;;;;;;;;;5024986;28;20069;-72
2024/02/24 14:39:16;;;;;;;9.90;3.67;;;;;;;;;;5028606;28;20567;-75
2024/02/24 14:41:57;;;;;;;6.88;2.90;;;;;;;;;;5030497;28;20053;-80
2024/02/24 14:44:33;;;;;;;6.75;3.42;;;;;;;;;;5023883;28;20431;-77
2024/02/24 14:47:07;;;;;;;3.92;3.42;;;;;;;;;;5030393;28;20056;-74
2024/02/24 14:49:38;;;;;;;4.40;3.17;;;;;;;;;;5025523;28;20411;-74
2024/02/24 14:52:09;;;;;;;4.55;3.25;;;;;;;;;;5024835;28;20057;-74
2024/02/24 14:54:42;;;;;;;5.22;2.90;;;;;;;;;;5025499;28;20053;-74
2024/02/24 14:57:14;;;;;;;4.82;2.83;;;;;;;;;;5024666;28;20053;-74
2024/02/24 14:59:45;;;;;;;6.32;3.20;;;;;;;;;;5025665;28;20423;-73
2024/02/24 15:02:15;;;;;;;5.20;2.95;;;;;;;;;;5024302;28;20054;-73
2024/02/24 15:05:07;;;;;;;7.40;3.15;;;;;;;;;;5025664;28;20041;-73
2024/02/24 15:07:40;;;;;;;5.38;3.17;;;;;;;;;;5024653;28;20049;-73
2024/02/24 15:10:12;;;;;;;5.90;2.97;;;;;;;;;;5040404;28;20065;-73
2024/02/24 15:12:42;;;;;;;3.00;2.70;;;;;;;;;;5024728;28;20060;-73
2024/02/24 15:15:15;;;;;;;3.03;2.72;;;;;;;;;;5023274;28;20049;-74
2024/02/24 15:17:47;;;;;;;3.55;2.67;;;;;;;;;;5023021;28;20057;-73
2024/02/24 15:20:18;;;;;;;3.53;2.55;;;;;;;;;;5024862;28;20062;-75
2024/02/24 15:22:50;;;;;;;5.22;2.60;;;;;;;;;;5024908;28;20060;-73
2024/02/24 15:25:24;;;;;;;7.05;2.95;;;;;;;;;;5026296;28;20068;-75
2024/02/24 15:27:56;;;;;;;8.60;2.50;;;;;;;;;;5024538;28;20044;-73